Time,TemperatureF,DewpointF,PressureIn,WindDirection,WindDirectionDegrees,WindSpeedMPH,WindSpeedGustMPH,Humidity,HourlyPrecipIn,Conditions,Clouds,dailyrainin,SoftwareType,DateUTC
2013-10-11 00:05:00,50.4,45.1,30.08,WNW,295,1.0,1.0,82,0.00,,,0.00,Wunderground v.1.15,2013-10-11 07:05:00,
2013-10-11 00:10:00,50.3,45.0,30.08,NW,313,1.0,1.0,82,0.00,,,0.00,Wunderground v.1.15,2013-10-11 07:10:00,
2013-10-11 00:20:00,50.3,45.0,30.08,WNW,299,1.0,1.0,82,0.00,,,0.00,Wunderground v.1.15,2013-10-11 07:20:00,
2013-10-11 00:25:00,50.2,44.6,30.08,WNW,301,1.0,1.0,81,0.00,,,0.00,Wunderground v.1.15,2013-10-11 07:25:00,
2013-10-11 00:35:00,50.3,44.4,30.08,NW,323,1.0,1.0,80,0.00,,,0.00,Wunderground v.1.15,2013-10-11 07:35:00,
2013-10-11 00:40:00,50.2,44.6,30.09,NW,323,1.0,1.0,81,0.00,,,0.00,Wunderground v.1.15,2013-10-11 07:40:00,
2013-10-11 00:50:00,50.2,44.9,30.08,NW,323,1.0,1.0,82,0.00,,,0.00,Wunderground v.1.15,2013-10-11 07:50:00,
2013-10-11 01:00:00,50.1,45.1,30.08,NW,323,1.0,1.0,83,0.00,,,0.00,Wunderground v.1.15,2013-10-11 08:00:00,
2013-10-11 01:10:00,50.1,44.2,30.09,NW,314,1.0,2.0,80,0.00,,,0.00,Wunderground v.1.15,2013-10-11 08:10:00,
2013-10-11 01:20:00,50.1,44.2,30.09,NNW,348,2.0,2.0,80,0.00,,,0.00,Wunderground v.1.15,2013-10-11 08:20:00,
2013-10-11 01:25:00,50.1,44.2,30.09,North,350,1.0,2.0,80,0.00,,,0.00,Wunderground v.1.15,2013-10-11 08:25:00,
2013-10-11 01:35:00,50.1,43.8,30.09,NNW,333,1.0,1.0,79,0.00,,,0.00,Wunderground v.1.15,2013-10-11 08:35:00,
2013-10-11 01:40:00,50.1,43.8,30.08,NW,307,1.0,1.0,79,0.00,,,0.00,Wunderground v.1.15,2013-10-11 08:40:00,
2013-10-11 01:50:00,50.0,43.7,30.09,NNW,340,1.0,1.0,79,0.00,,,0.00,Wunderground v.1.15,2013-10-11 08:50:00,
2013-10-11 02:00:00,50.0,44.1,30.10,NE,43,2.0,2.0,80,0.00,,,0.00,Wunderground v.1.15,2013-10-11 09:00:00,
2013-10-11 02:05:00,49.9,44.0,30.10,NNW,344,3.0,4.0,80,0.00,,,0.00,Wunderground v.1.15,2013-10-11 09:05:00,
2013-10-11 02:15:00,49.8,43.9,30.09,NNW,330,2.0,3.0,80,0.00,,,0.00,Wunderground v.1.15,2013-10-11 09:15:00,
2013-10-11 02:20:00,49.8,43.5,30.09,NNW,339,2.0,3.0,79,0.00,,,0.00,Wunderground v.1.15,2013-10-11 09:20:00,
2013-10-11 02:30:00,49.7,43.5,30.10,NNW,336,2.0,2.0,79,0.00,,,0.00,Wunderground v.1.15,2013-10-11 09:30:00,
2013-10-11 02:35:00,49.6,43.4,30.09,NNW,331,2.0,2.0,79,0.00,,,0.00,Wunderground v.1.15,2013-10-11 09:35:00,
2013-10-11 02:45:00,49.5,43.3,30.09,North,356,2.0,3.0,79,0.00,,,0.00,Wunderground v.1.15,2013-10-11 09:45:00,
2013-10-11 02:55:00,49.5,43.3,30.10,North,355,2.0,2.0,79,0.00,,,0.00,Wunderground v.1.15,2013-10-11 09:55:00,
2013-10-11 03:05:00,49.4,43.5,30.10,NNW,332,1.0,3.0,80,0.00,,,0.00,Wunderground v.1.15,2013-10-11 10:05:00,
2013-10-11 03:15:00,49.4,43.2,30.10,NW,325,1.0,1.0,79,0.00,,,0.00,Wunderground v.1.15,2013-10-11 10:15:00,
2013-10-11 03:20:00,49.4,43.5,30.10,NW,325,1.0,1.0,80,0.00,,,0.00,Wunderground v.1.15,2013-10-11 10:20:00,
2013-10-11 03:30:00,49.3,43.1,30.10,NW,326,1.0,1.0,79,0.00,,,0.00,Wunderground v.1.15,2013-10-11 10:30:00,
2013-10-11 03:35:00,49.2,43.0,30.10,NW,326,1.0,1.0,79,0.00,,,0.00,Wunderground v.1.15,2013-10-11 10:35:00,
2013-10-11 03:45:00,49.2,43.3,30.10,NW,326,0.0,2.0,80,0.00,,,0.00,Wunderground v.1.15,2013-10-11 10:45:00,
2013-10-11 03:55:00,49.0,43.1,30.10,NW,326,0.0,0.0,80,0.00,,,0.00,Wunderground v.1.15,2013-10-11 10:55:00,
2013-10-11 04:00:00,48.9,43.0,30.11,NW,326,0.0,0.0,80,0.00,,,0.00,Wunderground v.1.15,2013-10-11 11:00:00,
2013-10-11 04:10:00,48.8,42.9,30.11,NW,326,0.0,0.0,80,0.00,,,0.00,Wunderground v.1.15,2013-10-11 11:10:00,
2013-10-11 04:20:00,48.7,42.8,30.10,NW,326,0.0,0.0,80,0.00,,,0.00,Wunderground v.1.15,2013-10-11 11:20:00,
2013-10-11 04:30:00,48.7,43.5,30.10,NW,326,0.0,0.0,82,0.00,,,0.00,Wunderground v.1.15,2013-10-11 11:30:00,
2013-10-11 04:40:00,48.6,44.0,30.11,NW,326,0.0,0.0,84,0.00,,,0.00,Wunderground v.1.15,2013-10-11 11:40:00,
2013-10-11 04:45:00,48.6,44.0,30.11,NW,326,0.0,0.0,84,0.00,,,0.00,Wunderground v.1.15,2013-10-11 11:45:00,
2013-10-11 04:55:00,48.4,43.5,30.11,NW,326,0.0,0.0,83,0.00,,,0.00,Wunderground v.1.15,2013-10-11 11:55:00,
2013-10-11 05:00:00,48.4,43.5,30.11,NW,326,0.0,0.0,83,0.00,,,0.00,Wunderground v.1.15,2013-10-11 12:00:00,
2013-10-11 05:10:00,48.2,43.3,30.11,NW,326,0.0,0.0,83,0.00,,,0.00,Wunderground v.1.15,2013-10-11 12:10:00,
2013-10-11 05:15:00,48.2,43.3,30.11,NW,326,0.0,0.0,83,0.00,,,0.00,Wunderground v.1.15,2013-10-11 12:15:00,
2013-10-11 05:25:00,48.1,44.1,30.11,NW,326,0.0,0.0,86,0.00,,,0.00,Wunderground v.1.15,2013-10-11 12:25:00,
2013-10-11 05:30:00,48.1,44.1,30.11,NW,326,0.0,0.0,86,0.00,,,0.00,Wunderground v.1.15,2013-10-11 12:30:00,
2013-10-11 05:40:00,48.0,44.3,30.11,NW,326,0.0,0.0,87,0.00,,,0.00,Wunderground v.1.15,2013-10-11 12:40:00,
2013-10-11 05:50:00,47.9,44.2,30.12,NW,326,0.0,0.0,87,0.00,,,0.00,Wunderground v.1.15,2013-10-11 12:50:00,
2013-10-11 06:00:00,47.8,44.1,30.12,NW,326,0.0,0.0,87,0.00,,,0.00,Wunderground v.1.15,2013-10-11 13:00:00,
2013-10-11 06:05:00,47.8,44.1,30.11,NW,326,0.0,0.0,87,0.00,,,0.00,Wunderground v.1.15,2013-10-11 13:05:00,
2013-10-11 06:15:00,47.7,44.0,30.12,NW,326,0.0,0.0,87,0.00,,,0.00,Wunderground v.1.15,2013-10-11 13:15:00,
2013-10-11 06:25:00,47.8,44.4,30.12,NW,326,0.0,0.0,88,0.00,,,0.00,Wunderground v.1.15,2013-10-11 13:25:00,
2013-10-11 06:30:00,47.8,44.4,30.12,NW,326,0.0,0.0,88,0.00,,,0.00,Wunderground v.1.15,2013-10-11 13:30:00,
2013-10-11 06:40:00,47.8,44.4,30.12,NW,326,0.0,0.0,88,0.00,,,0.00,Wunderground v.1.15,2013-10-11 13:40:00,
2013-10-11 06:45:00,47.9,44.5,30.11,NW,326,0.0,0.0,88,0.00,,,0.00,Wunderground v.1.15,2013-10-11 13:45:00,
2013-10-11 06:55:00,47.9,44.2,30.11,NW,326,0.0,0.0,87,0.00,,,0.00,Wunderground v.1.15,2013-10-11 13:55:00,
2013-10-11 07:05:00,47.9,44.2,30.11,NW,326,0.0,0.0,87,0.00,,,0.00,Wunderground v.1.15,2013-10-11 14:05:00,
2013-10-11 07:10:00,48.0,44.3,30.12,NW,326,0.0,0.0,87,0.00,,,0.00,Wunderground v.1.15,2013-10-11 14:10:00,
2013-10-11 07:20:00,48.1,44.4,30.11,NW,326,0.0,0.0,87,0.00,,,0.00,Wunderground v.1.15,2013-10-11 14:20:00,
2013-10-11 07:25:00,48.1,44.4,30.11,NW,326,0.0,0.0,87,0.00,,,0.00,Wunderground v.1.15,2013-10-11 14:25:00,
2013-10-11 07:35:00,48.1,44.4,30.11,NW,326,0.0,0.0,87,0.00,,,0.00,Wunderground v.1.15,2013-10-11 14:35:00,
2013-10-11 07:40:00,48.1,44.4,30.11,NW,326,0.0,0.0,87,0.00,,,0.00,Wunderground v.1.15,2013-10-11 14:40:00,
2013-10-11 07:50:00,48.1,44.1,30.11,NW,326,0.0,0.0,86,0.00,,,0.00,Wunderground v.1.15,2013-10-11 14:50:00,
2013-10-11 07:55:00,48.2,44.2,30.11,NW,326,0.0,0.0,86,0.00,,,0.00,Wunderground v.1.15,2013-10-11 14:55:00,
2013-10-11 08:05:00,48.3,44.3,30.12,NW,326,0.0,0.0,86,0.00,,,0.00,Wunderground v.1.15,2013-10-11 15:05:00,
2013-10-11 08:10:00,48.5,44.5,30.12,NW,326,0.0,0.0,86,0.00,,,0.00,Wunderground v.1.15,2013-10-11 15:10:00,
2013-10-11 08:20:00,48.7,45.0,30.12,NW,326,0.0,0.0,87,0.00,,,0.00,Wunderground v.1.15,2013-10-11 15:20:00,
2013-10-11 08:25:00,48.8,45.1,30.12,NW,326,0.0,0.0,87,0.00,,,0.00,Wunderground v.1.15,2013-10-11 15:25:00,
2013-10-11 08:35:00,49.2,45.8,30.12,NW,326,0.0,0.0,88,0.00,,,0.00,Wunderground v.1.15,2013-10-11 15:35:00,
2013-10-11 08:40:00,49.4,45.7,30.13,NW,326,0.0,0.0,87,0.00,,,0.00,Wunderground v.1.15,2013-10-11 15:40:00,
2013-10-11 08:50:00,49.7,46.0,30.13,NW,326,0.0,0.0,87,0.00,,,0.00,Wunderground v.1.15,2013-10-11 15:50:00,
2013-10-11 09:00:00,50.0,46.3,30.13,NW,326,0.0,0.0,87,0.00,,,0.00,Wunderground v.1.15,2013-10-11 16:00:00,
2013-10-11 09:05:00,50.0,46.0,30.13,NW,326,0.0,0.0,86,0.00,,,0.00,Wunderground v.1.15,2013-10-11 16:05:00,
2013-10-11 09:15:00,50.1,46.1,30.13,NW,326,0.0,0.0,86,0.00,,,0.00,Wunderground v.1.15,2013-10-11 16:15:00,
2013-10-11 09:20:00,50.3,46.6,30.13,NW,326,0.0,0.0,87,0.00,,,0.00,Wunderground v.1.15,2013-10-11 16:20:00,
2013-10-11 09:30:00,50.9,46.9,30.13,NW,326,0.0,0.0,86,0.00,,,0.00,Wunderground v.1.15,2013-10-11 16:30:00,
2013-10-11 09:40:00,51.1,46.4,30.13,NW,326,0.0,0.0,84,0.00,,,0.00,Wunderground v.1.15,2013-10-11 16:40:00,
2013-10-11 09:45:00,51.1,46.7,30.13,NW,326,0.0,0.0,85,0.00,,,0.00,Wunderground v.1.15,2013-10-11 16:45:00,
2013-10-11 09:55:00,51.5,47.1,30.13,NW,326,0.0,1.0,85,0.00,,,0.00,Wunderground v.1.15,2013-10-11 16:55:00,
2013-10-11 10:00:00,51.8,47.1,30.13,NW,326,0.0,0.0,84,0.00,,,0.00,Wunderground v.1.15,2013-10-11 17:00:00,
2013-10-11 10:10:00,52.2,47.5,30.13,NW,326,0.0,0.0,84,0.00,,,0.00,Wunderground v.1.15,2013-10-11 17:10:00,
2013-10-11 10:15:00,52.2,47.5,30.13,East,81,1.0,1.0,84,0.00,,,0.00,Wunderground v.1.15,2013-10-11 17:15:00,
2013-10-11 10:25:00,52.1,47.1,30.14,East,81,0.0,2.0,83,0.00,,,0.00,Wunderground v.1.15,2013-10-11 17:25:00,
2013-10-11 10:30:00,52.1,46.4,30.13,East,81,0.0,0.0,81,0.00,,,0.00,Wunderground v.1.15,2013-10-11 17:30:00,
2013-10-11 10:40:00,52.1,46.4,30.14,East,81,0.0,1.0,81,0.00,,,0.00,Wunderground v.1.15,2013-10-11 17:40:00,
2013-10-11 10:45:00,52.1,46.4,30.14,East,85,1.0,1.0,81,0.00,,,0.00,Wunderground v.1.15,2013-10-11 17:45:00,
2013-10-11 10:55:00,52.5,46.8,30.13,East,81,0.0,0.0,81,0.00,,,0.00,Wunderground v.1.15,2013-10-11 17:55:00,
2013-10-11 11:00:00,52.7,47.0,30.14,East,85,0.0,0.0,81,0.00,,,0.00,Wunderground v.1.15,2013-10-11 18:00:00,
2013-10-11 11:10:00,53.1,47.1,30.13,East,81,0.0,0.0,80,0.00,,,0.00,Wunderground v.1.15,2013-10-11 18:10:00,
2013-10-11 11:20:00,53.2,47.5,30.13,ESE,103,0.0,2.0,81,0.00,,,0.00,Wunderground v.1.15,2013-10-11 18:20:00,
2013-10-11 11:30:00,53.5,47.1,30.12,ESE,118,0.0,0.0,79,0.00,,,0.00,Wunderground v.1.15,2013-10-11 18:30:00,
2013-10-11 11:40:00,53.7,47.0,30.12,SSE,160,1.0,1.0,78,0.00,,,0.00,Wunderground v.1.15,2013-10-11 18:40:00,
2013-10-11 11:50:00,54.0,47.0,30.13,ESE,106,1.0,1.0,77,0.00,,,0.00,Wunderground v.1.15,2013-10-11 18:50:00,
2013-10-11 11:55:00,54.0,47.3,30.13,NNE,12,1.0,2.0,78,0.00,,,0.00,Wunderground v.1.15,2013-10-11 18:55:00,
2013-10-11 12:05:00,54.1,46.7,30.13,ESE,120,1.0,1.0,76,0.00,,,0.00,Wunderground v.1.15,2013-10-11 19:05:00,
2013-10-11 12:10:00,54.2,46.8,30.13,ENE,59,1.0,1.0,76,0.00,,,0.00,Wunderground v.1.15,2013-10-11 19:10:00,
2013-10-11 12:20:00,54.4,45.6,30.13,ENE,73,0.0,0.0,72,0.00,,,0.00,Wunderground v.1.15,2013-10-11 19:20:00,
2013-10-11 12:25:00,54.5,46.4,30.13,NE,42,0.0,0.0,74,0.00,,,0.00,Wunderground v.1.15,2013-10-11 19:25:00,
2013-10-11 12:35:00,54.9,46.0,30.13,NE,44,1.0,3.0,72,0.00,,,0.00,Wunderground v.1.15,2013-10-11 19:35:00,
2013-10-11 12:40:00,54.7,46.2,30.13,North,359,1.0,1.0,73,0.00,,,0.00,Wunderground v.1.15,2013-10-11 19:40:00,
2013-10-11 12:50:00,54.4,47.3,30.13,NNW,333,3.0,3.0,77,0.00,,,0.00,Wunderground v.1.15,2013-10-11 19:50:00,
2013-10-11 12:55:00,54.2,47.1,30.13,North,356,3.0,4.0,77,0.00,,,0.00,Wunderground v.1.15,2013-10-11 19:55:00,
2013-10-11 13:05:00,54.0,47.3,30.13,North,355,3.0,3.0,78,0.00,,,0.00,Wunderground v.1.15,2013-10-11 20:05:00,
2013-10-11 13:10:00,54.0,47.0,30.13,North,357,3.0,3.0,77,0.00,,,0.00,Wunderground v.1.15,2013-10-11 20:10:00,
2013-10-11 13:20:00,54.4,47.7,30.12,North,359,2.0,2.0,78,0.00,,,0.00,Wunderground v.1.15,2013-10-11 20:20:00,
2013-10-11 13:25:00,54.6,46.5,30.12,SE,137,1.0,2.0,74,0.00,,,0.00,Wunderground v.1.15,2013-10-11 20:25:00,
2013-10-11 13:35:00,54.6,46.1,30.12,North,9,1.0,2.0,73,0.00,,,0.00,Wunderground v.1.15,2013-10-11 20:35:00,
2013-10-11 13:40:00,54.7,46.6,30.12,NNE,18,1.0,1.0,74,0.00,,,0.00,Wunderground v.1.15,2013-10-11 20:40:00,
2013-10-11 13:50:00,54.9,46.4,30.12,ESE,114,1.0,2.0,73,0.00,,,0.00,Wunderground v.1.15,2013-10-11 20:50:00,
2013-10-11 13:55:00,55.1,46.2,30.12,NNE,20,1.0,2.0,72,0.00,,,0.00,Wunderground v.1.15,2013-10-11 20:55:00,
2013-10-11 14:05:00,54.9,46.4,30.13,North,355,2.0,3.0,73,0.00,,,0.00,Wunderground v.1.15,2013-10-11 21:05:00,
2013-10-11 14:15:00,54.7,46.2,30.13,East,79,2.0,2.0,73,0.00,,,0.00,Wunderground v.1.15,2013-10-11 21:15:00,
2013-10-11 14:25:00,54.6,46.5,30.13,ESE,103,1.0,1.0,74,0.00,,,0.00,Wunderground v.1.15,2013-10-11 21:25:00,
2013-10-11 14:35:00,54.7,46.6,30.13,ENE,61,0.0,1.0,74,0.00,,,0.00,Wunderground v.1.15,2013-10-11 21:35:00,
2013-10-11 14:40:00,54.8,46.7,30.13,ENE,72,1.0,1.0,74,0.00,,,0.00,Wunderground v.1.15,2013-10-11 21:40:00,
2013-10-11 14:50:00,54.8,46.3,30.13,East,81,0.0,0.0,73,0.00,,,0.00,Wunderground v.1.15,2013-10-11 21:50:00,
2013-10-11 14:55:00,54.8,46.3,30.13,ENE,69,1.0,1.0,73,0.00,,,0.00,Wunderground v.1.15,2013-10-11 21:55:00,
2013-10-11 15:05:00,54.6,46.8,30.12,NNE,18,1.0,3.0,75,0.00,,,0.00,Wunderground v.1.15,2013-10-11 22:05:00,
2013-10-11 15:10:00,54.5,46.7,30.12,NNE,19,1.0,1.0,75,0.00,,,0.00,Wunderground v.1.15,2013-10-11 22:10:00,
2013-10-11 15:20:00,54.5,46.7,30.12,NNE,24,1.0,1.0,75,0.00,,,0.00,Wunderground v.1.15,2013-10-11 22:20:00,
2013-10-11 15:25:00,54.6,47.2,30.12,NNE,24,0.0,1.0,76,0.00,,,0.00,Wunderground v.1.15,2013-10-11 22:25:00,
2013-10-11 15:35:00,54.9,46.0,30.12,ESE,105,0.0,1.0,72,0.00,,,0.00,Wunderground v.1.15,2013-10-11 22:35:00,
2013-10-11 15:40:00,54.9,45.7,30.12,NE,40,1.0,1.0,71,0.00,,,0.00,Wunderground v.1.15,2013-10-11 22:40:00,
2013-10-11 15:50:00,55.0,46.1,30.12,ESE,113,1.0,1.0,72,0.00,,,0.00,Wunderground v.1.15,2013-10-11 22:50:00,
2013-10-11 15:55:00,55.1,46.2,30.12,ESE,118,0.0,2.0,72,0.00,,,0.00,Wunderground v.1.15,2013-10-11 22:55:00,
2013-10-11 16:05:00,55.3,47.9,30.11,East,99,0.0,4.0,76,0.00,,,0.00,Wunderground v.1.15,2013-10-11 23:05:00,
2013-10-11 16:15:00,55.2,46.3,30.11,ESE,105,1.0,2.0,72,0.00,,,0.00,Wunderground v.1.15,2013-10-11 23:15:00,
2013-10-11 16:25:00,55.1,47.0,30.11,East,99,0.0,0.0,74,0.00,,,0.00,Wunderground v.1.15,2013-10-11 23:25:00,
2013-10-11 16:35:00,55.0,45.8,30.11,SSW,212,0.0,0.0,71,0.00,,,0.00,Wunderground v.1.15,2013-10-11 23:35:00,
2013-10-11 16:40:00,55.0,46.5,30.11,SSW,209,0.0,1.0,73,0.00,,,0.00,Wunderground v.1.15,2013-10-11 23:40:00,
2013-10-11 16:50:00,55.0,46.1,30.11,ENE,61,0.0,1.0,72,0.00,,,0.00,Wunderground v.1.15,2013-10-11 23:50:00,
2013-10-11 17:00:00,55.0,45.8,30.11,ENE,61,0.0,0.0,71,0.00,,,0.00,Wunderground v.1.15,2013-10-12 00:00:00,
2013-10-11 17:05:00,55.1,45.5,30.10,ENE,61,0.0,0.0,70,0.00,,,0.00,Wunderground v.1.15,2013-10-12 00:05:00,
2013-10-11 17:15:00,55.1,45.9,30.10,ENE,61,0.0,0.0,71,0.00,,,0.00,Wunderground v.1.15,2013-10-12 00:15:00,
2013-10-11 17:20:00,55.1,46.6,30.10,ENE,61,0.0,0.0,73,0.00,,,0.00,Wunderground v.1.15,2013-10-12 00:20:00,
2013-10-11 17:30:00,55.0,46.1,30.10,ENE,61,0.0,0.0,72,0.00,,,0.00,Wunderground v.1.15,2013-10-12 00:30:00,
2013-10-11 17:40:00,54.5,45.7,30.10,NNE,23,1.0,1.0,72,0.00,,,0.00,Wunderground v.1.15,2013-10-12 00:40:00,
2013-10-11 17:50:00,53.9,45.8,30.10,NNE,23,0.0,1.0,74,0.00,,,0.00,Wunderground v.1.15,2013-10-12 00:50:00,
2013-10-11 18:00:00,53.3,45.6,30.09,NNE,23,1.0,1.0,75,0.00,,,0.00,Wunderground v.1.15,2013-10-12 01:00:00,
2013-10-11 18:05:00,53.1,45.7,30.09,NNE,18,1.0,1.0,76,0.00,,,0.00,Wunderground v.1.15,2013-10-12 01:05:00,
2013-10-11 18:15:00,52.7,45.3,30.09,NNE,18,0.0,1.0,76,0.00,,,0.00,Wunderground v.1.15,2013-10-12 01:15:00,
2013-10-11 18:20:00,52.6,45.2,30.09,NNE,18,0.0,1.0,76,0.00,,,0.00,Wunderground v.1.15,2013-10-12 01:20:00,
2013-10-11 18:30:00,52.2,45.2,30.09,NNE,18,1.0,1.0,77,0.00,,,0.00,Wunderground v.1.15,2013-10-12 01:30:00,
2013-10-11 18:40:00,51.9,44.6,30.09,NNE,18,1.0,1.0,76,0.00,,,0.00,Wunderground v.1.15,2013-10-12 01:40:00,
2013-10-11 18:45:00,51.7,44.7,30.09,NNE,18,1.0,1.0,77,0.00,,,0.00,Wunderground v.1.15,2013-10-12 01:45:00,
2013-10-11 18:55:00,51.4,44.4,30.09,NNE,18,1.0,1.0,77,0.00,,,0.00,Wunderground v.1.15,2013-10-12 01:55:00,
2013-10-11 19:00:00,51.2,44.2,30.09,NNE,18,1.0,1.0,77,0.00,,,0.00,Wunderground v.1.15,2013-10-12 02:00:00,
2013-10-11 19:10:00,51.1,44.1,30.09,NNE,18,0.0,0.0,77,0.00,,,0.00,Wunderground v.1.15,2013-10-12 02:10:00,
2013-10-11 19:15:00,51.2,44.2,30.09,NNE,18,0.0,1.0,77,0.00,,,0.00,Wunderground v.1.15,2013-10-12 02:15:00,
2013-10-11 19:25:00,51.2,44.2,30.09,NNE,18,1.0,1.0,77,0.00,,,0.00,Wunderground v.1.15,2013-10-12 02:25:00,
2013-10-11 19:30:00,51.2,44.6,30.09,NNE,18,0.0,0.0,78,0.00,,,0.00,Wunderground v.1.15,2013-10-12 02:30:00,
2013-10-11 19:40:00,51.1,44.5,30.09,NNE,18,1.0,1.0,78,0.00,,,0.00,Wunderground v.1.15,2013-10-12 02:40:00,
2013-10-11 19:45:00,51.0,44.4,30.09,NNE,18,1.0,1.0,78,0.00,,,0.00,Wunderground v.1.15,2013-10-12 02:45:00,
2013-10-11 19:55:00,50.9,43.9,30.09,NNE,18,1.0,1.0,77,0.00,,,0.00,Wunderground v.1.15,2013-10-12 02:55:00,
2013-10-11 20:00:00,50.9,43.9,30.09,NNE,18,1.0,1.0,77,0.00,,,0.00,Wunderground v.1.15,2013-10-12 03:00:00,
2013-10-11 20:10:00,50.8,44.2,30.09,NNE,18,1.0,1.0,78,0.00,,,0.00,Wunderground v.1.15,2013-10-12 03:10:00,
2013-10-11 20:15:00,50.9,43.9,30.09,NNE,18,0.0,1.0,77,0.00,,,0.00,Wunderground v.1.15,2013-10-12 03:15:00,
2013-10-11 20:25:00,51.2,44.2,30.09,NNE,18,0.0,0.0,77,0.00,,,0.00,Wunderground v.1.15,2013-10-12 03:25:00,
2013-10-11 20:30:00,51.2,44.2,30.09,NNE,18,0.0,0.0,77,0.00,,,0.00,Wunderground v.1.15,2013-10-12 03:30:00,
2013-10-11 20:40:00,51.1,44.5,30.09,NNE,18,0.0,1.0,78,0.00,,,0.00,Wunderground v.1.15,2013-10-12 03:40:00,
2013-10-11 20:45:00,51.1,44.8,30.09,NNE,18,1.0,1.0,79,0.00,,,0.00,Wunderground v.1.15,2013-10-12 03:45:00,
2013-10-11 20:55:00,51.0,45.0,30.09,NNE,18,1.0,2.0,80,0.00,,,0.00,Wunderground v.1.15,2013-10-12 03:55:00,
2013-10-11 21:05:00,51.2,45.2,30.09,NNE,16,1.0,1.0,80,0.00,,,0.00,Wunderground v.1.15,2013-10-12 04:05:00,
2013-10-11 21:10:00,51.2,45.2,30.09,North,9,1.0,1.0,80,0.00,,,0.00,Wunderground v.1.15,2013-10-12 04:10:00,
2013-10-11 21:15:00,51.2,45.2,30.09,North,9,1.0,1.0,80,0.00,,,0.00,Wunderground v.1.15,2013-10-12 04:15:00,
2013-10-11 21:20:00,51.2,45.2,30.09,North,9,0.0,0.0,80,0.00,,,0.00,Wunderground v.1.15,2013-10-12 04:20:00,
2013-10-11 21:25:00,51.1,45.1,30.09,North,9,0.0,0.0,80,0.00,,,0.00,Wunderground v.1.15,2013-10-12 04:25:00,
2013-10-11 21:35:00,51.1,45.5,30.09,North,2,1.0,2.0,81,0.00,,,0.00,Wunderground v.1.15,2013-10-12 04:35:00,
2013-10-11 21:40:00,51.0,45.0,30.09,North,2,1.0,1.0,80,0.00,,,0.00,Wunderground v.1.15,2013-10-12 04:40:00,
2013-10-11 21:50:00,50.8,45.2,30.09,North,2,0.0,0.0,81,0.00,,,0.00,Wunderground v.1.15,2013-10-12 04:50:00,
2013-10-11 21:55:00,50.7,45.1,30.09,North,2,0.0,0.0,81,0.00,,,0.00,Wunderground v.1.15,2013-10-12 04:55:00,
2013-10-11 22:05:00,50.6,45.0,30.09,North,2,0.0,0.0,81,0.00,,,0.00,Wunderground v.1.15,2013-10-12 05:05:00,
2013-10-11 22:10:00,50.8,44.9,30.09,North,2,0.0,0.0,80,0.00,,,0.00,Wunderground v.1.15,2013-10-12 05:10:00,
2013-10-11 22:20:00,51.1,45.1,30.09,North,2,0.0,0.0,80,0.00,,,0.00,Wunderground v.1.15,2013-10-12 05:20:00,
2013-10-11 22:30:00,51.2,45.2,30.09,North,2,0.0,1.0,80,0.00,,,0.00,Wunderground v.1.15,2013-10-12 05:30:00,
2013-10-11 22:35:00,51.2,45.6,30.09,North,2,1.0,2.0,81,0.00,,,0.00,Wunderground v.1.15,2013-10-12 05:35:00,
2013-10-11 22:40:00,51.1,45.5,30.09,North,2,1.0,2.0,81,0.00,,,0.00,Wunderground v.1.15,2013-10-12 05:40:00,
2013-10-11 22:50:00,50.9,45.6,30.09,NNE,19,2.0,2.0,82,0.00,,,0.00,Wunderground v.1.15,2013-10-12 05:50:00,
2013-10-11 23:00:00,50.7,45.4,30.09,ENE,66,1.0,1.0,82,0.00,,,0.00,Wunderground v.1.15,2013-10-12 06:00:00,
2013-10-11 23:10:00,50.6,45.3,30.09,North,356,1.0,2.0,82,0.00,,,0.00,Wunderground v.1.15,2013-10-12 06:10:00,
2013-10-11 23:20:00,50.5,45.2,30.08,North,360,2.0,2.0,82,0.00,,,0.00,Wunderground v.1.15,2013-10-12 06:20:00,
2013-10-11 23:30:00,50.4,45.4,30.08,NW,322,2.0,2.0,83,0.00,,,0.00,Wunderground v.1.15,2013-10-12 06:30:00,
2013-10-11 23:40:00,50.3,45.0,30.08,NW,322,1.0,1.0,82,0.00,,,0.00,Wunderground v.1.15,2013-10-12 06:40:00,
2013-10-11 23:50:00,50.3,45.0,30.08,NNE,13,1.0,1.0,82,0.00,,,0.00,Wunderground v.1.15,2013-10-12 06:50:00,
2013-10-11 23:55:00,50.3,45.0,30.08,NE,35,1.0,1.0,82,0.00,,,0.00,Wunderground v.1.15,2013-10-12 06:55:00,